sensor_id;sensor_type;location;lat;lon;timestamp;temperature;humidity
73360;DHT22;63092;43.582;19.528;2023-12-14T00:00:14;17.40;90.60
73360;DHT22;63092;43.582;19.528;2023-12-14T00:02:40;17.40;90.60
73360;DHT22;63092;43.582;19.528;2023-12-14T00:05:06;17.40;90.40
73360;DHT22;63092;43.582;19.528;2023-12-14T00:07:31;17.40;90.40
73360;DHT22;63092;43.582;19.528;2023-12-14T00:09:57;17.40;90.40
73360;DHT22;63092;43.582;19.528;2023-12-14T00:12:23;17.40;90.30
73360;DHT22;63092;43.582;19.528;2023-12-14T00:14:48;17.40;90.00
73360;DHT22;63092;43.582;19.528;2023-12-14T00:17:14;17.50;90.10
73360;DHT22;63092;43.582;19.528;2023-12-14T00:19:39;17.40;90.20
73360;DHT22;63092;43.582;19.528;2023-12-14T00:22:05;17.50;90.30
73360;DHT22;63092;43.582;19.528;2023-12-14T00:24:30;17.40;90.10
73360;DHT22;63092;43.582;19.528;2023-12-14T00:26:56;17.50;90.10
73360;DHT22;63092;43.582;19.528;2023-12-14T00:29:22;17.40;90.10
73360;DHT22;63092;43.582;19.528;2023-12-14T00:31:47;17.40;90.00
73360;DHT22;63092;43.582;19.528;2023-12-14T00:34:13;17.50;90.00
73360;DHT22;63092;43.582;19.528;2023-12-14T00:36:38;17.50;90.10
73360;DHT22;63092;43.582;19.528;2023-12-14T00:39:04;17.40;90.00
73360;DHT22;63092;43.582;19.528;2023-12-14T00:41:29;17.40;90.00
73360;DHT22;63092;43.582;19.528;2023-12-14T00:43:55;17.40;90.00
73360;DHT22;63092;43.582;19.528;2023-12-14T00:46:21;17.50;90.00
73360;DHT22;63092;43.582;19.528;2023-12-14T00:48:46;17.50;90.00
73360;DHT22;63092;43.582;19.528;2023-12-14T00:51:12;17.50;90.00
73360;DHT22;63092;43.582;19.528;2023-12-14T00:53:37;17.50;90.10
73360;DHT22;63092;43.582;19.528;2023-12-14T00:56:03;17.50;90.10
73360;DHT22;63092;43.582;19.528;2023-12-14T00:58:28;17.50;90.30
73360;DHT22;63092;43.582;19.528;2023-12-14T01:00:54;17.50;90.30
73360;DHT22;63092;43.582;19.528;2023-12-14T01:03:20;17.50;90.30
73360;DHT22;63092;43.582;19.528;2023-12-14T01:05:46;17.50;90.30
73360;DHT22;63092;43.582;19.528;2023-12-14T01:08:11;17.50;90.30
73360;DHT22;63092;43.582;19.528;2023-12-14T01:10:37;17.50;90.40
73360;DHT22;63092;43.582;19.528;2023-12-14T01:13:03;17.50;90.30
73360;DHT22;63092;43.582;19.528;2023-12-14T01:15:28;17.50;90.30
73360;DHT22;63092;43.582;19.528;2023-12-14T01:17:54;17.50;90.30
73360;DHT22;63092;43.582;19.528;2023-12-14T01:20:19;17.50;90.30
73360;DHT22;63092;43.582;19.528;2023-12-14T01:22:45;17.50;90.40
73360;DHT22;63092;43.582;19.528;2023-12-14T01:25:11;17.50;90.80
73360;DHT22;63092;43.582;19.528;2023-12-14T01:27:36;17.50;90.60
73360;DHT22;63092;43.582;19.528;2023-12-14T01:30:02;17.50;90.50
73360;DHT22;63092;43.582;19.528;2023-12-14T01:32:28;17.50;90.60
73360;DHT22;63092;43.582;19.528;2023-12-14T01:34:53;17.40;90.50
73360;DHT22;63092;43.582;19.528;2023-12-14T01:37:19;17.50;90.50
73360;DHT22;63092;43.582;19.528;2023-12-14T01:39:44;17.50;90.40
73360;DHT22;63092;43.582;19.528;2023-12-14T01:42:10;17.50;90.30
73360;DHT22;63092;43.582;19.528;2023-12-14T01:44:36;17.40;90.50
73360;DHT22;63092;43.582;19.528;2023-12-14T01:47:01;17.40;90.40
73360;DHT22;63092;43.582;19.528;2023-12-14T01:49:27;17.40;90.30
73360;DHT22;63092;43.582;19.528;2023-12-14T01:51:52;17.40;90.10
73360;DHT22;63092;43.582;19.528;2023-12-14T01:54:18;17.40;90.20
73360;DHT22;63092;43.582;19.528;2023-12-14T01:56:43;17.40;90.30
73360;DHT22;63092;43.582;19.528;2023-12-14T01:59:09;17.50;90.20
73360;DHT22;63092;43.582;19.528;2023-12-14T02:01:42;17.50;90.00
73360;DHT22;63092;43.582;19.528;2023-12-14T02:04:08;17.50;90.10
73360;DHT22;63092;43.582;19.528;2023-12-14T02:06:34;17.50;90.00
73360;DHT22;63092;43.582;19.528;2023-12-14T02:09:00;17.40;90.00
73360;DHT22;63092;43.582;19.528;2023-12-14T02:11:26;17.50;90.00
73360;DHT22;63092;43.582;19.528;2023-12-14T02:13:52;17.40;89.90
73360;DHT22;63092;43.582;19.528;2023-12-14T02:16:17;17.40;89.80
73360;DHT22;63092;43.582;19.528;2023-12-14T02:18:43;17.40;89.90
73360;DHT22;63092;43.582;19.528;2023-12-14T02:21:09;17.40;89.60
73360;DHT22;63092;43.582;19.528;2023-12-14T02:23:35;17.40;89.40
73360;DHT22;63092;43.582;19.528;2023-12-14T02:26:00;17.40;89.50
73360;DHT22;63092;43.582;19.528;2023-12-14T02:28:26;17.40;89.30
73360;DHT22;63092;43.582;19.528;2023-12-14T02:30:52;17.40;89.00
73360;DHT22;63092;43.582;19.528;2023-12-14T02:33:17;17.50;89.40
73360;DHT22;63092;43.582;19.528;2023-12-14T02:35:43;17.50;89.20
73360;DHT22;63092;43.582;19.528;2023-12-14T02:38:08;17.50;88.70
73360;DHT22;63092;43.582;19.528;2023-12-14T02:40:34;17.50;89.00
73360;DHT22;63092;43.582;19.528;2023-12-14T02:43:00;17.50;88.70
73360;DHT22;63092;43.582;19.528;2023-12-14T02:45:25;17.50;88.80
73360;DHT22;63092;43.582;19.528;2023-12-14T02:47:51;17.50;88.90
73360;DHT22;63092;43.582;19.528;2023-12-14T02:50:19;17.50;89.80
73360;DHT22;63092;43.582;19.528;2023-12-14T02:52:45;17.50;89.00
73360;DHT22;63092;43.582;19.528;2023-12-14T02:55:10;17.50;89.40
73360;DHT22;63092;43.582;19.528;2023-12-14T02:57:36;17.50;89.40
73360;DHT22;63092;43.582;19.528;2023-12-14T03:00:01;17.50;89.50
73360;DHT22;63092;43.582;19.528;2023-12-14T03:02:27;17.40;89.30
73360;DHT22;63092;43.582;19.528;2023-12-14T03:04:53;17.40;89.30
73360;DHT22;63092;43.582;19.528;2023-12-14T03:07:18;17.40;89.00
73360;DHT22;63092;43.582;19.528;2023-12-14T03:09:44;17.50;89.20
73360;DHT22;63092;43.582;19.528;2023-12-14T03:12:10;17.50;89.30
73360;DHT22;63092;43.582;19.528;2023-12-14T03:14:36;17.50;89.10
73360;DHT22;63092;43.582;19.528;2023-12-14T03:17:01;17.50;89.10
73360;DHT22;63092;43.582;19.528;2023-12-14T03:19:27;17.50;89.10
73360;DHT22;63092;43.582;19.528;2023-12-14T03:21:53;17.40;89.20
73360;DHT22;63092;43.582;19.528;2023-12-14T03:24:19;17.50;88.40
73360;DHT22;63092;43.582;19.528;2023-12-14T03:26:44;17.50;88.40
73360;DHT22;63092;43.582;19.528;2023-12-14T03:29:10;17.50;88.50
73360;DHT22;63092;43.582;19.528;2023-12-14T03:31:35;17.50;88.40
73360;DHT22;63092;43.582;19.528;2023-12-14T03:34:01;17.60;88.30
73360;DHT22;63092;43.582;19.528;2023-12-14T03:36:27;17.60;88.50
73360;DHT22;63092;43.582;19.528;2023-12-14T03:38:53;17.60;88.60
73360;DHT22;63092;43.582;19.528;2023-12-14T03:41:19;17.60;88.50
73360;DHT22;63092;43.582;19.528;2023-12-14T03:43:45;17.50;88.80
73360;DHT22;63092;43.582;19.528;2023-12-14T03:46:10;17.50;88.80
73360;DHT22;63092;43.582;19.528;2023-12-14T03:48:36;17.50;88.40
73360;DHT22;63092;43.582;19.528;2023-12-14T03:51:05;17.50;88.60
73360;DHT22;63092;43.582;19.528;2023-12-14T03:53:30;17.50;88.60
73360;DHT22;63092;43.582;19.528;2023-12-14T03:55:59;17.50;88.70
73360;DHT22;63092;43.582;19.528;2023-12-14T03:58:25;17.50;89.00
73360;DHT22;63092;43.582;19.528;2023-12-14T04:00:51;17.50;88.60
73360;DHT22;63092;43.582;19.528;2023-12-14T04:03:17;17.50;88.70
73360;DHT22;63092;43.582;19.528;2023-12-14T04:05:43;17.50;88.40
73360;DHT22;63092;43.582;19.528;2023-12-14T04:08:10;17.50;88.40
73360;DHT22;63092;43.582;19.528;2023-12-14T04:10:36;17.50;89.30
73360;DHT22;63092;43.582;19.528;2023-12-14T04:13:02;17.30;90.80
73360;DHT22;63092;43.582;19.528;2023-12-14T04:15:27;16.90;92.20
73360;DHT22;63092;43.582;19.528;2023-12-14T04:57:31;12.80;99.60
73360;DHT22;63092;43.582;19.528;2023-12-14T04:59:57;12.60;99.90
73360;DHT22;63092;43.582;19.528;2023-12-14T05:02:23;12.70;99.90
73360;DHT22;63092;43.582;19.528;2023-12-14T05:04:48;12.60;99.90
73360;DHT22;63092;43.582;19.528;2023-12-14T05:07:15;12.50;99.90
73360;DHT22;63092;43.582;19.528;2023-12-14T05:09:41;12.50;99.90
73360;DHT22;63092;43.582;19.528;2023-12-14T05:12:07;12.40;99.90
73360;DHT22;63092;43.582;19.528;2023-12-14T05:14:32;12.30;99.90
73360;DHT22;63092;43.582;19.528;2023-12-14T05:16:58;12.30;99.90
73360;DHT22;63092;43.582;19.528;2023-12-14T05:19:24;12.30;99.90
73360;DHT22;63092;43.582;19.528;2023-12-14T05:21:49;12.30;99.90
73360;DHT22;63092;43.582;19.528;2023-12-14T05:24:15;12.20;99.90
73360;DHT22;63092;43.582;19.528;2023-12-14T05:26:41;12.00;99.90
73360;DHT22;63092;43.582;19.528;2023-12-14T05:29:06;11.90;99.90
73360;DHT22;63092;43.582;19.528;2023-12-14T05:31:32;11.80;99.90
73360;DHT22;63092;43.582;19.528;2023-12-14T05:33:58;11.80;99.90
73360;DHT22;63092;43.582;19.528;2023-12-14T05:36:24;11.80;99.90
73360;DHT22;63092;43.582;19.528;2023-12-14T05:38:49;11.80;99.90
73360;DHT22;63092;43.582;19.528;2023-12-14T05:41:15;11.70;99.90
73360;DHT22;63092;43.582;19.528;2023-12-14T05:43:41;11.90;99.90
73360;DHT22;63092;43.582;19.528;2023-12-14T05:46:07;11.90;99.90
73360;DHT22;63092;43.582;19.528;2023-12-14T05:48:32;11.80;99.90
73360;DHT22;63092;43.582;19.528;2023-12-14T05:51:00;11.90;99.90
73360;DHT22;63092;43.582;19.528;2023-12-14T05:53:26;11.90;99.90
73360;DHT22;63092;43.582;19.528;2023-12-14T05:55:52;11.80;99.90
73360;DHT22;63092;43.582;19.528;2023-12-14T05:58:18;11.80;99.90
73360;DHT22;63092;43.582;19.528;2023-12-14T06:00:44;11.90;99.90
73360;DHT22;63092;43.582;19.528;2023-12-14T06:03:10;11.90;99.90
73360;DHT22;63092;43.582;19.528;2023-12-14T06:05:35;11.90;99.90
73360;DHT22;63092;43.582;19.528;2023-12-14T06:08:01;11.90;99.90
73360;DHT22;63092;43.582;19.528;2023-12-14T06:10:27;11.90;99.90
73360;DHT22;63092;43.582;19.528;2023-12-14T06:12:52;11.90;99.90
73360;DHT22;63092;43.582;19.528;2023-12-14T06:15:18;12.00;99.90
73360;DHT22;63092;43.582;19.528;2023-12-14T06:17:44;12.00;99.90
73360;DHT22;63092;43.582;19.528;2023-12-14T06:20:10;12.00;99.90
73360;DHT22;63092;43.582;19.528;2023-12-14T06:22:36;12.10;99.90
73360;DHT22;63092;43.582;19.528;2023-12-14T06:25:02;12.10;99.90
73360;DHT22;63092;43.582;19.528;2023-12-14T06:27:29;12.10;99.90
73360;DHT22;63092;43.582;19.528;2023-12-14T06:29:54;12.10;99.90
73360;DHT22;63092;43.582;19.528;2023-12-14T06:32:20;12.10;99.90
73360;DHT22;63092;43.582;19.528;2023-12-14T06:34:46;12.20;99.90
73360;DHT22;63092;43.582;19.528;2023-12-14T06:37:12;12.30;99.90
73360;DHT22;63092;43.582;19.528;2023-12-14T06:39:37;12.30;99.90
73360;DHT22;63092;43.582;19.528;2023-12-14T06:42:03;12.30;99.90
73360;DHT22;63092;43.582;19.528;2023-12-14T06:44:29;12.40;99.90
73360;DHT22;63092;43.582;19.528;2023-12-14T06:46:56;12.40;99.90
73360;DHT22;63092;43.582;19.528;2023-12-14T06:49:24;12.50;99.90
73360;DHT22;63092;43.582;19.528;2023-12-14T06:51:50;12.50;99.90
73360;DHT22;63092;43.582;19.528;2023-12-14T06:54:16;12.40;99.90
73360;DHT22;63092;43.582;19.528;2023-12-14T06:56:41;12.50;99.90
73360;DHT22;63092;43.582;19.528;2023-12-14T06:59:07;12.50;99.90
73360;DHT22;63092;43.582;19.528;2023-12-14T07:01:34;12.40;99.90
73360;DHT22;63092;43.582;19.528;2023-12-14T07:04:00;12.40;99.90
73360;DHT22;63092;43.582;19.528;2023-12-14T07:06:28;12.40;99.90
73360;DHT22;63092;43.582;19.528;2023-12-14T07:08:54;12.40;99.90
73360;DHT22;63092;43.582;19.528;2023-12-14T07:11:20;12.40;99.90
73360;DHT22;63092;43.582;19.528;2023-12-14T07:13:45;12.40;99.90
73360;DHT22;63092;43.582;19.528;2023-12-14T07:16:11;12.40;99.90
73360;DHT22;63092;43.582;19.528;2023-12-14T07:18:38;12.40;99.90
73360;DHT22;63092;43.582;19.528;2023-12-14T07:21:05;12.40;99.90
73360;DHT22;63092;43.582;19.528;2023-12-14T07:23:31;12.40;99.90
73360;DHT22;63092;43.582;19.528;2023-12-14T07:25:57;12.40;99.90
73360;DHT22;63092;43.582;19.528;2023-12-14T07:28:23;12.40;99.90
73360;DHT22;63092;43.582;19.528;2023-12-14T07:30:49;12.40;99.90
73360;DHT22;63092;43.582;19.528;2023-12-14T07:33:15;12.40;99.90
73360;DHT22;63092;43.582;19.528;2023-12-14T07:35:41;12.40;99.90
73360;DHT22;63092;43.582;19.528;2023-12-14T07:38:09;12.40;99.90
73360;DHT22;63092;43.582;19.528;2023-12-14T07:40:34;12.40;99.90
73360;DHT22;63092;43.582;19.528;2023-12-14T07:43:00;12.40;99.90
73360;DHT22;63092;43.582;19.528;2023-12-14T07:45:26;12.40;99.90
73360;DHT22;63092;43.582;19.528;2023-12-14T07:47:52;12.40;99.90
73360;DHT22;63092;43.582;19.528;2023-12-14T07:50:18;12.40;99.90
73360;DHT22;63092;43.582;19.528;2023-12-14T07:52:44;12.30;99.90
73360;DHT22;63092;43.582;19.528;2023-12-14T07:55:10;12.30;99.90
73360;DHT22;63092;43.582;19.528;2023-12-14T07:57:36;12.30;99.90
73360;DHT22;63092;43.582;19.528;2023-12-14T08:00:02;12.20;99.90
73360;DHT22;63092;43.582;19.528;2023-12-14T08:02:29;12.20;99.90
73360;DHT22;63092;43.582;19.528;2023-12-14T08:04:55;12.30;99.90
73360;DHT22;63092;43.582;19.528;2023-12-14T08:07:20;12.20;99.90
73360;DHT22;63092;43.582;19.528;2023-12-14T08:09:46;12.30;99.90
73360;DHT22;63092;43.582;19.528;2023-12-14T08:12:12;12.20;99.90
73360;DHT22;63092;43.582;19.528;2023-12-14T08:14:38;12.10;99.90
73360;DHT22;63092;43.582;19.528;2023-12-14T08:17:08;12.00;99.90
73360;DHT22;63092;43.582;19.528;2023-12-14T08:19:34;12.10;99.90
73360;DHT22;63092;43.582;19.528;2023-12-14T08:22:00;12.10;99.90
73360;DHT22;63092;43.582;19.528;2023-12-14T08:24:26;12.00;99.90
73360;DHT22;63092;43.582;19.528;2023-12-14T08:26:51;11.90;99.90
73360;DHT22;63092;43.582;19.528;2023-12-14T08:29:17;11.90;99.90
73360;DHT22;63092;43.582;19.528;2023-12-14T08:31:43;11.80;99.90
73360;DHT22;63092;43.582;19.528;2023-12-14T08:34:08;11.80;99.90
73360;DHT22;63092;43.582;19.528;2023-12-14T08:36:34;11.80;99.90
73360;DHT22;63092;43.582;19.528;2023-12-14T08:39:00;11.90;99.90
73360;DHT22;63092;43.582;19.528;2023-12-14T08:41:25;11.80;99.90
73360;DHT22;63092;43.582;19.528;2023-12-14T08:43:51;11.80;99.90
73360;DHT22;63092;43.582;19.528;2023-12-14T08:46:17;11.80;99.90
73360;DHT22;63092;43.582;19.528;2023-12-14T08:48:43;11.90;99.90
73360;DHT22;63092;43.582;19.528;2023-12-14T08:51:08;11.90;99.90
73360;DHT22;63092;43.582;19.528;2023-12-14T08:53:34;12.00;99.90
73360;DHT22;63092;43.582;19.528;2023-12-14T08:56:00;12.00;99.90
73360;DHT22;63092;43.582;19.528;2023-12-14T08:58:27;12.00;99.90
73360;DHT22;63092;43.582;19.528;2023-12-14T09:00:53;11.90;99.90
73360;DHT22;63092;43.582;19.528;2023-12-14T09:03:19;12.00;99.90
73360;DHT22;63092;43.582;19.528;2023-12-14T09:05:45;12.00;99.90
73360;DHT22;63092;43.582;19.528;2023-12-14T09:08:11;12.00;99.90
73360;DHT22;63092;43.582;19.528;2023-12-14T09:10:38;12.00;99.90
73360;DHT22;63092;43.582;19.528;2023-12-14T09:13:04;12.00;99.90
73360;DHT22;63092;43.582;19.528;2023-12-14T09:15:33;12.00;99.90
73360;DHT22;63092;43.582;19.528;2023-12-14T09:17:59;12.00;99.90
73360;DHT22;63092;43.582;19.528;2023-12-14T09:20:25;11.90;99.90
73360;DHT22;63092;43.582;19.528;2023-12-14T09:22:52;11.90;99.90
73360;DHT22;63092;43.582;19.528;2023-12-14T09:25:18;11.90;99.90
73360;DHT22;63092;43.582;19.528;2023-12-14T09:27:44;12.00;99.90
73360;DHT22;63092;43.582;19.528;2023-12-14T09:30:11;11.90;99.90
73360;DHT22;63092;43.582;19.528;2023-12-14T09:32:36;11.90;99.90
73360;DHT22;63092;43.582;19.528;2023-12-14T09:35:03;11.90;99.90
73360;DHT22;63092;43.582;19.528;2023-12-14T09:37:28;11.90;99.90
73360;DHT22;63092;43.582;19.528;2023-12-14T09:39:54;11.90;99.90
73360;DHT22;63092;43.582;19.528;2023-12-14T09:42:21;11.90;99.90
73360;DHT22;63092;43.582;19.528;2023-12-14T09:44:48;11.90;99.90
73360;DHT22;63092;43.582;19.528;2023-12-14T09:47:14;12.00;99.90
73360;DHT22;63092;43.582;19.528;2023-12-14T09:49:41;12.00;99.90
73360;DHT22;63092;43.582;19.528;2023-12-14T09:52:09;12.00;99.90
73360;DHT22;63092;43.582;19.528;2023-12-14T09:54:35;12.00;99.90
73360;DHT22;63092;43.582;19.528;2023-12-14T09:57:01;12.10;99.90
73360;DHT22;63092;43.582;19.528;2023-12-14T09:59:26;12.10;99.90
73360;DHT22;63092;43.582;19.528;2023-12-14T10:01:52;12.10;99.90
73360;DHT22;63092;43.582;19.528;2023-12-14T10:04:19;12.20;99.90
73360;DHT22;63092;43.582;19.528;2023-12-14T10:06:47;12.10;99.90
73360;DHT22;63092;43.582;19.528;2023-12-14T10:09:13;11.90;99.90
73360;DHT22;63092;43.582;19.528;2023-12-14T10:11:42;12.00;99.90
73360;DHT22;63092;43.582;19.528;2023-12-14T10:14:24;12.00;99.90
73360;DHT22;63092;43.582;19.528;2023-12-14T10:16:52;12.00;99.90
73360;DHT22;63092;43.582;19.528;2023-12-14T10:19:18;12.10;99.90
73360;DHT22;63092;43.582;19.528;2023-12-14T10:21:49;12.10;99.90
73360;DHT22;63092;43.582;19.528;2023-12-14T10:24:15;12.10;99.90
73360;DHT22;63092;43.582;19.528;2023-12-14T10:26:42;12.00;99.90
73360;DHT22;63092;43.582;19.528;2023-12-14T10:29:10;12.00;99.90
73360;DHT22;63092;43.582;19.528;2023-12-14T10:31:36;12.00;99.90
73360;DHT22;63092;43.582;19.528;2023-12-14T10:34:05;12.00;99.90
73360;DHT22;63092;43.582;19.528;2023-12-14T10:36:32;12.00;99.90
73360;DHT22;63092;43.582;19.528;2023-12-14T10:38:59;12.00;99.90
73360;DHT22;63092;43.582;19.528;2023-12-14T10:41:26;11.90;99.90
73360;DHT22;63092;43.582;19.528;2023-12-14T10:43:56;11.90;99.90
73360;DHT22;63092;43.582;19.528;2023-12-14T10:46:23;11.90;99.90
73360;DHT22;63092;43.582;19.528;2023-12-14T10:48:52;12.10;99.90
73360;DHT22;63092;43.582;19.528;2023-12-14T10:51:22;12.10;99.90
73360;DHT22;63092;43.582;19.528;2023-12-14T10:53:49;12.10;99.90
73360;DHT22;63092;43.582;19.528;2023-12-14T10:56:17;12.10;99.90
73360;DHT22;63092;43.582;19.528;2023-12-14T10:58:48;12.20;99.90
73360;DHT22;63092;43.582;19.528;2023-12-14T11:01:15;12.30;99.90
73360;DHT22;63092;43.582;19.528;2023-12-14T11:03:43;12.30;99.90
73360;DHT22;63092;43.582;19.528;2023-12-14T11:08:52;12.10;99.90
73360;DHT22;63092;43.582;19.528;2023-12-14T11:11:18;12.10;99.90
73360;DHT22;63092;43.582;19.528;2023-12-14T11:13:52;12.00;99.90
73360;DHT22;63092;43.582;19.528;2023-12-14T11:16:22;12.00;99.90
73360;DHT22;63092;43.582;19.528;2023-12-14T11:18:48;12.00;99.90
73360;DHT22;63092;43.582;19.528;2023-12-14T11:21:20;12.20;99.90
73360;DHT22;63092;43.582;19.528;2023-12-14T11:23:50;12.20;99.90
73360;DHT22;63092;43.582;19.528;2023-12-14T11:26:20;12.30;99.90
73360;DHT22;63092;43.582;19.528;2023-12-14T11:28:48;12.40;99.90
73360;DHT22;63092;43.582;19.528;2023-12-14T11:31:14;12.40;99.90
73360;DHT22;63092;43.582;19.528;2023-12-14T11:33:40;12.40;99.90
73360;DHT22;63092;43.582;19.528;2023-12-14T11:36:06;12.40;99.90
73360;DHT22;63092;43.582;19.528;2023-12-14T11:38:34;12.40;99.90
73360;DHT22;63092;43.582;19.528;2023-12-14T11:41:00;12.30;99.90
73360;DHT22;63092;43.582;19.528;2023-12-14T11:43:26;12.20;99.90
73360;DHT22;63092;43.582;19.528;2023-12-14T11:45:53;12.10;99.90
73360;DHT22;63092;43.582;19.528;2023-12-14T11:48:20;12.20;99.90
73360;DHT22;63092;43.582;19.528;2023-12-14T11:50:46;12.30;99.90
73360;DHT22;63092;43.582;19.528;2023-12-14T11:53:13;12.30;99.90
73360;DHT22;63092;43.582;19.528;2023-12-14T11:55:40;12.30;99.90
73360;DHT22;63092;43.582;19.528;2023-12-14T11:58:07;12.20;99.90
73360;DHT22;63092;43.582;19.528;2023-12-14T12:00:33;12.30;99.90
73360;DHT22;63092;43.582;19.528;2023-12-14T12:03:18;12.40;99.90
73360;DHT22;63092;43.582;19.528;2023-12-14T12:05:51;12.40;99.90
73360;DHT22;63092;43.582;19.528;2023-12-14T12:08:21;12.40;99.90
73360;DHT22;63092;43.582;19.528;2023-12-14T12:10:48;12.40;99.90
73360;DHT22;63092;43.582;19.528;2023-12-14T12:13:15;12.30;99.90
73360;DHT22;63092;43.582;19.528;2023-12-14T12:15:41;12.30;99.90
73360;DHT22;63092;43.582;19.528;2023-12-14T12:18:12;12.20;99.90
73360;DHT22;63092;43.582;19.528;2023-12-14T12:20:38;12.20;99.90
73360;DHT22;63092;43.582;19.528;2023-12-14T12:23:05;12.20;99.90
73360;DHT22;63092;43.582;19.528;2023-12-14T12:25:31;12.30;99.90
73360;DHT22;63092;43.582;19.528;2023-12-14T12:27:58;12.30;99.90
73360;DHT22;63092;43.582;19.528;2023-12-14T12:30:24;12.40;99.90
73360;DHT22;63092;43.582;19.528;2023-12-14T12:32:50;12.40;99.90
73360;DHT22;63092;43.582;19.528;2023-12-14T12:35:18;12.30;99.90
73360;DHT22;63092;43.582;19.528;2023-12-14T12:37:44;12.40;99.90
73360;DHT22;63092;43.582;19.528;2023-12-14T12:40:10;12.30;99.90
73360;DHT22;63092;43.582;19.528;2023-12-14T12:42:36;12.30;99.90
73360;DHT22;63092;43.582;19.528;2023-12-14T12:45:02;12.20;99.90
73360;DHT22;63092;43.582;19.528;2023-12-14T12:47:28;12.30;99.90
73360;DHT22;63092;43.582;19.528;2023-12-14T12:49:54;12.30;99.90
73360;DHT22;63092;43.582;19.528;2023-12-14T12:52:20;12.20;99.90
73360;DHT22;63092;43.582;19.528;2023-12-14T12:54:46;12.20;99.90
73360;DHT22;63092;43.582;19.528;2023-12-14T12:57:12;12.20;99.90
73360;DHT22;63092;43.582;19.528;2023-12-14T12:59:38;12.20;99.90
73360;DHT22;63092;43.582;19.528;2023-12-14T13:02:04;12.20;99.90
73360;DHT22;63092;43.582;19.528;2023-12-14T13:04:30;12.20;99.90
73360;DHT22;63092;43.582;19.528;2023-12-14T13:06:58;12.20;99.90
73360;DHT22;63092;43.582;19.528;2023-12-14T13:09:27;12.20;99.90
73360;DHT22;63092;43.582;19.528;2023-12-14T13:11:53;12.20;99.90
73360;DHT22;63092;43.582;19.528;2023-12-14T13:14:18;12.20;99.90
73360;DHT22;63092;43.582;19.528;2023-12-14T13:16:44;12.10;99.90
73360;DHT22;63092;43.582;19.528;2023-12-14T13:19:10;11.90;99.90
73360;DHT22;63092;43.582;19.528;2023-12-14T13:21:36;12.00;99.90
73360;DHT22;63092;43.582;19.528;2023-12-14T13:24:02;12.00;99.90
73360;DHT22;63092;43.582;19.528;2023-12-14T13:26:28;12.10;99.90
73360;DHT22;63092;43.582;19.528;2023-12-14T13:28:54;12.00;99.90
73360;DHT22;63092;43.582;19.528;2023-12-14T13:31:21;12.00;99.90
73360;DHT22;63092;43.582;19.528;2023-12-14T13:33:48;12.00;99.90
73360;DHT22;63092;43.582;19.528;2023-12-14T13:36:16;12.00;99.90
73360;DHT22;63092;43.582;19.528;2023-12-14T13:38:42;11.90;99.90
73360;DHT22;63092;43.582;19.528;2023-12-14T13:41:08;11.90;99.90
73360;DHT22;63092;43.582;19.528;2023-12-14T13:43:34;12.00;99.90
73360;DHT22;63092;43.582;19.528;2023-12-14T13:46:00;12.00;99.90
73360;DHT22;63092;43.582;19.528;2023-12-14T13:48:26;12.00;99.90
73360;DHT22;63092;43.582;19.528;2023-12-14T13:50:55;12.00;99.90
73360;DHT22;63092;43.582;19.528;2023-12-14T13:53:22;12.00;99.90
73360;DHT22;63092;43.582;19.528;2023-12-14T13:55:48;12.00;99.90
73360;DHT22;63092;43.582;19.528;2023-12-14T13:58:21;12.00;99.90
73360;DHT22;63092;43.582;19.528;2023-12-14T14:00:47;11.80;99.90
73360;DHT22;63092;43.582;19.528;2023-12-14T14:03:13;11.50;99.90
73360;DHT22;63092;43.582;19.528;2023-12-14T14:05:39;11.60;99.90
73360;DHT22;63092;43.582;19.528;2023-12-14T14:08:05;11.60;99.90
73360;DHT22;63092;43.582;19.528;2023-12-14T14:10:31;11.70;99.90
73360;DHT22;63092;43.582;19.528;2023-12-14T14:12:56;11.70;99.90
73360;DHT22;63092;43.582;19.528;2023-12-14T14:15:22;11.80;99.90
73360;DHT22;63092;43.582;19.528;2023-12-14T14:17:48;11.80;99.90
73360;DHT22;63092;43.582;19.528;2023-12-14T14:20:17;11.80;99.90
73360;DHT22;63092;43.582;19.528;2023-12-14T14:22:43;11.70;99.90
73360;DHT22;63092;43.582;19.528;2023-12-14T14:25:10;11.60;99.90
73360;DHT22;63092;43.582;19.528;2023-12-14T14:27:35;11.60;99.90
73360;DHT22;63092;43.582;19.528;2023-12-14T14:30:02;11.50;99.90
73360;DHT22;63092;43.582;19.528;2023-12-14T14:32:27;11.50;99.90
73360;DHT22;63092;43.582;19.528;2023-12-14T14:34:53;11.60;99.90
73360;DHT22;63092;43.582;19.528;2023-12-14T14:37:22;11.60;99.90
73360;DHT22;63092;43.582;19.528;2023-12-14T14:39:47;11.60;99.90
73360;DHT22;63092;43.582;19.528;2023-12-14T14:42:13;11.60;99.90
73360;DHT22;63092;43.582;19.528;2023-12-14T14:44:39;11.50;99.90
73360;DHT22;63092;43.582;19.528;2023-12-14T14:47:06;11.50;99.90
73360;DHT22;63092;43.582;19.528;2023-12-14T14:49:31;11.50;99.90
73360;DHT22;63092;43.582;19.528;2023-12-14T14:51:57;11.40;99.90
73360;DHT22;63092;43.582;19.528;2023-12-14T14:54:23;11.30;99.90
73360;DHT22;63092;43.582;19.528;2023-12-14T14:56:49;11.20;99.90
73360;DHT22;63092;43.582;19.528;2023-12-14T14:59:15;11.20;99.90
73360;DHT22;63092;43.582;19.528;2023-12-14T15:01:44;11.20;99.90
73360;DHT22;63092;43.582;19.528;2023-12-14T15:04:11;11.20;99.90
73360;DHT22;63092;43.582;19.528;2023-12-14T15:06:37;11.20;99.90
73360;DHT22;63092;43.582;19.528;2023-12-14T15:09:04;11.20;99.90
73360;DHT22;63092;43.582;19.528;2023-12-14T15:11:30;11.30;99.90
73360;DHT22;63092;43.582;19.528;2023-12-14T15:13:56;11.20;99.90
73360;DHT22;63092;43.582;19.528;2023-12-14T15:16:22;11.20;99.90
73360;DHT22;63092;43.582;19.528;2023-12-14T15:18:51;11.20;99.90
73360;DHT22;63092;43.582;19.528;2023-12-14T15:21:16;11.10;99.90
73360;DHT22;63092;43.582;19.528;2023-12-14T15:23:42;11.10;99.90
73360;DHT22;63092;43.582;19.528;2023-12-14T15:26:09;11.10;99.90
73360;DHT22;63092;43.582;19.528;2023-12-14T15:28:37;11.00;99.90
73360;DHT22;63092;43.582;19.528;2023-12-14T15:31:03;11.00;99.90
73360;DHT22;63092;43.582;19.528;2023-12-14T15:33:29;10.90;99.90
73360;DHT22;63092;43.582;19.528;2023-12-14T15:35:56;10.70;99.90
73360;DHT22;63092;43.582;19.528;2023-12-14T15:38:21;10.70;99.90
73360;DHT22;63092;43.582;19.528;2023-12-14T15:40:47;10.80;99.90
73360;DHT22;63092;43.582;19.528;2023-12-14T15:43:13;10.90;99.90
73360;DHT22;63092;43.582;19.528;2023-12-14T15:45:39;10.90;99.90
73360;DHT22;63092;43.582;19.528;2023-12-14T15:48:05;10.80;99.90
73360;DHT22;63092;43.582;19.528;2023-12-14T15:50:32;10.70;99.90